sensor_id;sensor_type;location;lat;lon;timestamp;P1;durP1;ratioP1;P2;durP2;ratioP2
18387;SDS011;9320;50.256;19.026;2022-12-18T00:00:04;63.77;;;29.17;;
18387;SDS011;9320;50.256;19.026;2022-12-18T00:02:33;66.93;;;30.43;;
18387;SDS011;9320;50.256;19.026;2022-12-18T00:05:01;70.37;;;29.60;;
18387;SDS011;9320;50.256;19.026;2022-12-18T00:07:30;61.10;;;28.33;;
18387;SDS011;9320;50.256;19.026;2022-12-18T00:09:58;67.80;;;29.73;;
18387;SDS011;9320;50.256;19.026;2022-12-18T00:12:26;61.23;;;29.20;;
18387;SDS011;9320;50.256;19.026;2022-12-18T00:14:55;60.23;;;27.33;;
18387;SDS011;9320;50.256;19.026;2022-12-18T00:17:24;63.83;;;28.83;;
18387;SDS011;9320;50.256;19.026;2022-12-18T00:19:52;65.80;;;28.57;;
18387;SDS011;9320;50.256;19.026;2022-12-18T00:22:20;67.47;;;29.40;;
18387;SDS011;9320;50.256;19.026;2022-12-18T00:24:48;59.83;;;27.73;;
18387;SDS011;9320;50.256;19.026;2022-12-18T00:27:16;67.57;;;27.60;;
18387;SDS011;9320;50.256;19.026;2022-12-18T00:29:44;65.17;;;28.83;;
18387;SDS011;9320;50.256;19.026;2022-12-18T00:32:12;65.93;;;28.87;;
18387;SDS011;9320;50.256;19.026;2022-12-18T00:34:42;66.97;;;28.73;;
18387;SDS011;9320;50.256;19.026;2022-12-18T00:37:09;66.77;;;28.90;;
18387;SDS011;9320;50.256;19.026;2022-12-18T00:39:45;63.50;;;29.73;;
18387;SDS011;9320;50.256;19.026;2022-12-18T00:42:15;69.93;;;29.23;;
18387;SDS011;9320;50.256;19.026;2022-12-18T00:45:00;69.37;;;30.10;;
18387;SDS011;9320;50.256;19.026;2022-12-18T00:47:34;61.10;;;27.83;;
18387;SDS011;9320;50.256;19.026;2022-12-18T00:50:04;57.10;;;28.23;;
18387;SDS011;9320;50.256;19.026;2022-12-18T00:52:32;60.77;;;26.87;;
18387;SDS011;9320;50.256;19.026;2022-12-18T00:55:00;66.37;;;28.13;;
18387;SDS011;9320;50.256;19.026;2022-12-18T00:57:31;58.97;;;27.77;;
18387;SDS011;9320;50.256;19.026;2022-12-18T01:00:00;62.07;;;28.77;;
18387;SDS011;9320;50.256;19.026;2022-12-18T01:02:28;62.60;;;29.07;;
18387;SDS011;9320;50.256;19.026;2022-12-18T01:04:56;64.60;;;28.67;;
18387;SDS011;9320;50.256;19.026;2022-12-18T01:07:25;58.97;;;28.30;;
18387;SDS011;9320;50.256;19.026;2022-12-18T01:09:53;56.43;;;26.57;;
18387;SDS011;9320;50.256;19.026;2022-12-18T01:12:21;64.97;;;28.80;;
18387;SDS011;9320;50.256;19.026;2022-12-18T01:14:49;68.50;;;30.17;;
18387;SDS011;9320;50.256;19.026;2022-12-18T01:17:17;62.97;;;28.33;;
18387;SDS011;9320;50.256;19.026;2022-12-18T01:19:45;68.80;;;28.33;;
18387;SDS011;9320;50.256;19.026;2022-12-18T01:22:13;61.93;;;27.20;;
18387;SDS011;9320;50.256;19.026;2022-12-18T01:24:43;64.03;;;28.13;;
18387;SDS011;9320;50.256;19.026;2022-12-18T01:27:11;63.47;;;27.27;;
18387;SDS011;9320;50.256;19.026;2022-12-18T01:29:39;65.77;;;27.77;;
18387;SDS011;9320;50.256;19.026;2022-12-18T01:32:07;60.17;;;28.03;;
18387;SDS011;9320;50.256;19.026;2022-12-18T01:34:36;65.67;;;29.07;;
18387;SDS011;9320;50.256;19.026;2022-12-18T01:37:04;60.80;;;25.83;;
18387;SDS011;9320;50.256;19.026;2022-12-18T01:39:32;67.20;;;27.33;;
18387;SDS011;9320;50.256;19.026;2022-12-18T01:42:03;61.27;;;27.23;;
18387;SDS011;9320;50.256;19.026;2022-12-18T01:47:38;64.17;;;27.03;;
18387;SDS011;9320;50.256;19.026;2022-12-18T01:50:11;60.97;;;27.37;;
18387;SDS011;9320;50.256;19.026;2022-12-18T01:52:42;57.13;;;26.23;;
18387;SDS011;9320;50.256;19.026;2022-12-18T01:55:13;58.60;;;26.77;;
18387;SDS011;9320;50.256;19.026;2022-12-18T01:57:45;61.73;;;28.43;;
18387;SDS011;9320;50.256;19.026;2022-12-18T02:00:15;67.30;;;28.03;;
18387;SDS011;9320;50.256;19.026;2022-12-18T02:02:46;63.93;;;27.90;;
18387;SDS011;9320;50.256;19.026;2022-12-18T02:05:15;64.57;;;28.27;;
18387;SDS011;9320;50.256;19.026;2022-12-18T02:07:48;61.10;;;28.13;;
18387;SDS011;9320;50.256;19.026;2022-12-18T02:10:27;60.80;;;27.77;;
18387;SDS011;9320;50.256;19.026;2022-12-18T02:13:05;66.07;;;28.20;;
18387;SDS011;9320;50.256;19.026;2022-12-18T02:15:40;63.93;;;27.70;;
18387;SDS011;9320;50.256;19.026;2022-12-18T02:18:18;58.03;;;25.97;;
18387;SDS011;9320;50.256;19.026;2022-12-18T02:20:52;60.90;;;27.27;;
18387;SDS011;9320;50.256;19.026;2022-12-18T02:23:31;62.23;;;26.03;;
18387;SDS011;9320;50.256;19.026;2022-12-18T02:26:16;61.90;;;27.90;;
18387;SDS011;9320;50.256;19.026;2022-12-18T02:28:49;61.77;;;27.10;;
18387;SDS011;9320;50.256;19.026;2022-12-18T02:31:22;65.47;;;27.10;;
18387;SDS011;9320;50.256;19.026;2022-12-18T02:33:58;61.60;;;25.37;;
18387;SDS011;9320;50.256;19.026;2022-12-18T02:36:30;58.70;;;27.20;;
18387;SDS011;9320;50.256;19.026;2022-12-18T02:38:59;60.00;;;26.97;;
18387;SDS011;9320;50.256;19.026;2022-12-18T02:41:30;55.47;;;26.20;;
18387;SDS011;9320;50.256;19.026;2022-12-18T02:44:00;57.67;;;26.87;;
18387;SDS011;9320;50.256;19.026;2022-12-18T02:46:30;64.03;;;27.30;;
18387;SDS011;9320;50.256;19.026;2022-12-18T02:49:03;66.87;;;27.60;;
18387;SDS011;9320;50.256;19.026;2022-12-18T02:51:40;61.57;;;27.53;;
18387;SDS011;9320;50.256;19.026;2022-12-18T02:54:20;61.37;;;27.17;;
18387;SDS011;9320;50.256;19.026;2022-12-18T02:57:01;57.63;;;26.67;;
18387;SDS011;9320;50.256;19.026;2022-12-18T02:59:37;67.57;;;27.37;;
18387;SDS011;9320;50.256;19.026;2022-12-18T03:02:17;66.67;;;29.13;;
18387;SDS011;9320;50.256;19.026;2022-12-18T03:04:53;65.77;;;29.03;;
18387;SDS011;9320;50.256;19.026;2022-12-18T03:07:28;64.73;;;28.23;;
18387;SDS011;9320;50.256;19.026;2022-12-18T03:10:04;68.63;;;27.60;;
18387;SDS011;9320;50.256;19.026;2022-12-18T03:12:37;69.33;;;29.53;;
18387;SDS011;9320;50.256;19.026;2022-12-18T03:15:11;64.80;;;28.47;;
18387;SDS011;9320;50.256;19.026;2022-12-18T03:17:44;74.30;;;29.53;;
18387;SDS011;9320;50.256;19.026;2022-12-18T03:20:18;72.33;;;29.90;;
18387;SDS011;9320;50.256;19.026;2022-12-18T03:22:50;77.97;;;32.07;;
18387;SDS011;9320;50.256;19.026;2022-12-18T03:25:21;73.10;;;30.13;;
18387;SDS011;9320;50.256;19.026;2022-12-18T03:27:53;67.07;;;29.20;;
18387;SDS011;9320;50.256;19.026;2022-12-18T03:30:26;76.43;;;30.73;;
18387;SDS011;9320;50.256;19.026;2022-12-18T03:32:56;73.60;;;30.53;;
18387;SDS011;9320;50.256;19.026;2022-12-18T03:35:30;79.77;;;31.47;;
18387;SDS011;9320;50.256;19.026;2022-12-18T03:38:02;68.90;;;30.07;;
18387;SDS011;9320;50.256;19.026;2022-12-18T03:40:31;72.13;;;30.33;;
18387;SDS011;9320;50.256;19.026;2022-12-18T03:43:07;71.10;;;29.07;;
18387;SDS011;9320;50.256;19.026;2022-12-18T03:45:40;73.03;;;28.47;;
18387;SDS011;9320;50.256;19.026;2022-12-18T03:48:16;67.47;;;28.60;;
18387;SDS011;9320;50.256;19.026;2022-12-18T03:50:52;79.93;;;31.47;;
18387;SDS011;9320;50.256;19.026;2022-12-18T03:53:26;75.70;;;30.97;;
18387;SDS011;9320;50.256;19.026;2022-12-18T03:55:58;72.07;;;29.93;;
18387;SDS011;9320;50.256;19.026;2022-12-18T03:58:31;73.83;;;31.13;;
18387;SDS011;9320;50.256;19.026;2022-12-18T04:01:02;71.07;;;30.37;;
18387;SDS011;9320;50.256;19.026;2022-12-18T04:03:36;67.40;;;29.73;;
18387;SDS011;9320;50.256;19.026;2022-12-18T04:06:07;70.63;;;30.43;;
18387;SDS011;9320;50.256;19.026;2022-12-18T04:08:35;65.87;;;28.87;;
18387;SDS011;9320;50.256;19.026;2022-12-18T04:11:04;66.33;;;28.90;;
18387;SDS011;9320;50.256;19.026;2022-12-18T04:13:35;70.23;;;29.67;;
18387;SDS011;9320;50.256;19.026;2022-12-18T04:16:05;68.93;;;28.83;;
18387;SDS011;9320;50.256;19.026;2022-12-18T04:18:33;69.23;;;29.47;;
18387;SDS011;9320;50.256;19.026;2022-12-18T04:21:02;74.23;;;29.33;;
18387;SDS011;9320;50.256;19.026;2022-12-18T04:23:30;70.97;;;29.63;;
18387;SDS011;9320;50.256;19.026;2022-12-18T04:25:58;75.70;;;31.00;;
18387;SDS011;9320;50.256;19.026;2022-12-18T04:28:26;72.20;;;29.73;;
18387;SDS011;9320;50.256;19.026;2022-12-18T04:30:55;72.07;;;30.70;;
18387;SDS011;9320;50.256;19.026;2022-12-18T04:33:23;78.93;;;32.83;;
18387;SDS011;9320;50.256;19.026;2022-12-18T04:35:51;71.83;;;30.47;;
18387;SDS011;9320;50.256;19.026;2022-12-18T04:38:19;71.33;;;29.53;;
18387;SDS011;9320;50.256;19.026;2022-12-18T04:40:48;65.90;;;29.27;;
18387;SDS011;9320;50.256;19.026;2022-12-18T04:43:16;72.00;;;30.67;;
18387;SDS011;9320;50.256;19.026;2022-12-18T04:45:44;66.37;;;28.90;;
18387;SDS011;9320;50.256;19.026;2022-12-18T04:48:13;61.87;;;29.00;;
18387;SDS011;9320;50.256;19.026;2022-12-18T04:50:41;73.13;;;31.23;;
18387;SDS011;9320;50.256;19.026;2022-12-18T04:53:09;69.13;;;29.93;;
18387;SDS011;9320;50.256;19.026;2022-12-18T04:55:37;72.33;;;30.07;;
18387;SDS011;9320;50.256;19.026;2022-12-18T04:58:05;78.33;;;30.37;;
18387;SDS011;9320;50.256;19.026;2022-12-18T05:00:34;71.03;;;30.50;;
18387;SDS011;9320;50.256;19.026;2022-12-18T05:03:03;70.17;;;32.17;;
18387;SDS011;9320;50.256;19.026;2022-12-18T05:05:33;79.03;;;31.73;;
18387;SDS011;9320;50.256;19.026;2022-12-18T05:08:02;77.17;;;31.80;;
18387;SDS011;9320;50.256;19.026;2022-12-18T05:10:30;78.63;;;31.07;;
18387;SDS011;9320;50.256;19.026;2022-12-18T05:13:03;75.77;;;32.17;;
18387;SDS011;9320;50.256;19.026;2022-12-18T05:15:32;74.70;;;31.00;;
18387;SDS011;9320;50.256;19.026;2022-12-18T05:18:01;76.53;;;30.47;;
18387;SDS011;9320;50.256;19.026;2022-12-18T05:20:30;84.63;;;32.00;;
18387;SDS011;9320;50.256;19.026;2022-12-18T05:22:59;84.57;;;33.57;;
18387;SDS011;9320;50.256;19.026;2022-12-18T05:25:27;84.23;;;33.70;;
18387;SDS011;9320;50.256;19.026;2022-12-18T05:27:56;86.83;;;33.90;;
18387;SDS011;9320;50.256;19.026;2022-12-18T05:30:24;90.90;;;35.90;;
18387;SDS011;9320;50.256;19.026;2022-12-18T05:32:53;78.50;;;31.97;;
18387;SDS011;9320;50.256;19.026;2022-12-18T05:35:21;83.57;;;33.27;;
18387;SDS011;9320;50.256;19.026;2022-12-18T05:37:49;80.13;;;33.13;;
18387;SDS011;9320;50.256;19.026;2022-12-18T05:40:19;83.67;;;33.40;;
18387;SDS011;9320;50.256;19.026;2022-12-18T05:42:47;81.93;;;31.63;;
18387;SDS011;9320;50.256;19.026;2022-12-18T05:45:15;75.80;;;33.33;;
18387;SDS011;9320;50.256;19.026;2022-12-18T05:47:43;86.13;;;32.97;;
18387;SDS011;9320;50.256;19.026;2022-12-18T05:50:11;78.27;;;33.27;;
18387;SDS011;9320;50.256;19.026;2022-12-18T05:52:39;81.07;;;33.10;;
18387;SDS011;9320;50.256;19.026;2022-12-18T05:55:07;87.77;;;33.37;;
18387;SDS011;9320;50.256;19.026;2022-12-18T05:57:36;82.10;;;32.30;;
18387;SDS011;9320;50.256;19.026;2022-12-18T06:00:05;85.57;;;34.43;;
18387;SDS011;9320;50.256;19.026;2022-12-18T06:02:33;85.37;;;34.20;;
18387;SDS011;9320;50.256;19.026;2022-12-18T06:05:02;85.30;;;34.67;;
18387;SDS011;9320;50.256;19.026;2022-12-18T06:07:30;81.00;;;34.43;;
18387;SDS011;9320;50.256;19.026;2022-12-18T06:09:58;91.87;;;34.70;;
18387;SDS011;9320;50.256;19.026;2022-12-18T06:12:26;89.50;;;35.00;;
18387;SDS011;9320;50.256;19.026;2022-12-18T06:14:55;94.60;;;34.73;;
18387;SDS011;9320;50.256;19.026;2022-12-18T06:17:27;90.60;;;36.83;;
18387;SDS011;9320;50.256;19.026;2022-12-18T06:19:55;96.13;;;36.80;;
18387;SDS011;9320;50.256;19.026;2022-12-18T06:22:23;89.90;;;35.83;;
18387;SDS011;9320;50.256;19.026;2022-12-18T06:24:52;103.17;;;39.60;;
18387;SDS011;9320;50.256;19.026;2022-12-18T06:27:20;99.57;;;37.87;;
18387;SDS011;9320;50.256;19.026;2022-12-18T06:29:48;104.93;;;40.20;;
18387;SDS011;9320;50.256;19.026;2022-12-18T06:32:17;112.20;;;42.90;;
18387;SDS011;9320;50.256;19.026;2022-12-18T06:34:45;108.03;;;40.77;;
18387;SDS011;9320;50.256;19.026;2022-12-18T06:37:13;92.03;;;37.30;;
18387;SDS011;9320;50.256;19.026;2022-12-18T06:39:41;96.10;;;37.67;;
18387;SDS011;9320;50.256;19.026;2022-12-18T06:42:09;93.97;;;35.87;;
18387;SDS011;9320;50.256;19.026;2022-12-18T06:44:37;88.17;;;36.20;;
18387;SDS011;9320;50.256;19.026;2022-12-18T06:47:05;112.73;;;40.40;;
18387;SDS011;9320;50.256;19.026;2022-12-18T06:49:35;101.33;;;39.33;;
18387;SDS011;9320;50.256;19.026;2022-12-18T06:52:03;97.80;;;37.23;;
18387;SDS011;9320;50.256;19.026;2022-12-18T06:54:31;96.33;;;37.97;;
18387;SDS011;9320;50.256;19.026;2022-12-18T06:56:59;99.37;;;38.73;;
18387;SDS011;9320;50.256;19.026;2022-12-18T06:59:27;105.97;;;40.17;;
18387;SDS011;9320;50.256;19.026;2022-12-18T07:01:55;108.07;;;38.73;;
18387;SDS011;9320;50.256;19.026;2022-12-18T07:04:27;112.93;;;40.30;;
18387;SDS011;9320;50.256;19.026;2022-12-18T07:06:57;92.23;;;38.80;;
18387;SDS011;9320;50.256;19.026;2022-12-18T07:09:25;110.03;;;40.87;;
18387;SDS011;9320;50.256;19.026;2022-12-18T07:11:56;107.77;;;40.07;;
18387;SDS011;9320;50.256;19.026;2022-12-18T07:14:24;93.33;;;37.83;;
18387;SDS011;9320;50.256;19.026;2022-12-18T07:16:52;100.43;;;38.23;;
18387;SDS011;9320;50.256;19.026;2022-12-18T07:19:20;98.67;;;39.33;;
18387;SDS011;9320;50.256;19.026;2022-12-18T07:21:51;96.13;;;39.23;;
18387;SDS011;9320;50.256;19.026;2022-12-18T07:24:20;104.83;;;41.50;;
18387;SDS011;9320;50.256;19.026;2022-12-18T07:26:48;103.23;;;41.23;;
18387;SDS011;9320;50.256;19.026;2022-12-18T07:29:16;113.17;;;42.33;;
18387;SDS011;9320;50.256;19.026;2022-12-18T07:31:45;95.47;;;37.27;;
18387;SDS011;9320;50.256;19.026;2022-12-18T07:34:13;102.10;;;38.67;;
18387;SDS011;9320;50.256;19.026;2022-12-18T07:36:42;98.17;;;37.37;;
18387;SDS011;9320;50.256;19.026;2022-12-18T07:39:10;95.30;;;36.77;;
18387;SDS011;9320;50.256;19.026;2022-12-18T07:41:40;98.57;;;34.70;;
18387;SDS011;9320;50.256;19.026;2022-12-18T07:44:12;102.70;;;38.53;;
18387;SDS011;9320;50.256;19.026;2022-12-18T07:46:40;102.63;;;38.43;;
18387;SDS011;9320;50.256;19.026;2022-12-18T07:49:09;100.40;;;38.30;;
18387;SDS011;9320;50.256;19.026;2022-12-18T07:51:37;91.27;;;36.57;;
18387;SDS011;9320;50.256;19.026;2022-12-18T07:54:04;98.33;;;37.10;;
18387;SDS011;9320;50.256;19.026;2022-12-18T07:56:32;95.63;;;38.50;;
18387;SDS011;9320;50.256;19.026;2022-12-18T07:59:02;99.83;;;36.87;;
18387;SDS011;9320;50.256;19.026;2022-12-18T08:01:30;94.53;;;36.30;;
18387;SDS011;9320;50.256;19.026;2022-12-18T08:03:58;100.07;;;37.63;;
18387;SDS011;9320;50.256;19.026;2022-12-18T08:06:26;101.23;;;35.80;;
18387;SDS011;9320;50.256;19.026;2022-12-18T08:08:54;108.03;;;39.03;;
18387;SDS011;9320;50.256;19.026;2022-12-18T08:11:24;94.83;;;36.63;;
18387;SDS011;9320;50.256;19.026;2022-12-18T08:13:54;95.73;;;36.90;;
18387;SDS011;9320;50.256;19.026;2022-12-18T08:16:24;97.33;;;37.77;;
18387;SDS011;9320;50.256;19.026;2022-12-18T08:18:52;99.43;;;37.40;;
18387;SDS011;9320;50.256;19.026;2022-12-18T08:21:22;97.17;;;39.13;;
18387;SDS011;9320;50.256;19.026;2022-12-18T08:23:52;103.60;;;37.80;;
18387;SDS011;9320;50.256;19.026;2022-12-18T08:26:21;105.47;;;39.73;;
18387;SDS011;9320;50.256;19.026;2022-12-18T08:28:50;99.17;;;38.23;;
18387;SDS011;9320;50.256;19.026;2022-12-18T08:31:18;98.87;;;36.40;;
18387;SDS011;9320;50.256;19.026;2022-12-18T08:33:50;88.20;;;36.60;;
18387;SDS011;9320;50.256;19.026;2022-12-18T08:36:19;97.90;;;37.40;;
18387;SDS011;9320;50.256;19.026;2022-12-18T08:38:48;103.87;;;39.47;;
18387;SDS011;9320;50.256;19.026;2022-12-18T08:41:16;101.07;;;40.80;;
18387;SDS011;9320;50.256;19.026;2022-12-18T08:43:45;96.40;;;39.73;;
18387;SDS011;9320;50.256;19.026;2022-12-18T08:46:32;100.17;;;41.00;;
18387;SDS011;9320;50.256;19.026;2022-12-18T08:49:03;109.27;;;41.47;;
18387;SDS011;9320;50.256;19.026;2022-12-18T08:51:32;110.63;;;41.00;;
18387;SDS011;9320;50.256;19.026;2022-12-18T08:54:01;105.03;;;39.43;;
18387;SDS011;9320;50.256;19.026;2022-12-18T08:56:31;105.93;;;39.10;;
18387;SDS011;9320;50.256;19.026;2022-12-18T08:59:00;113.07;;;40.20;;
18387;SDS011;9320;50.256;19.026;2022-12-18T09:01:28;111.73;;;41.97;;
18387;SDS011;9320;50.256;19.026;2022-12-18T09:03:57;106.77;;;42.03;;
18387;SDS011;9320;50.256;19.026;2022-12-18T09:06:26;122.73;;;42.83;;
18387;SDS011;9320;50.256;19.026;2022-12-18T09:08:54;106.13;;;42.43;;
18387;SDS011;9320;50.256;19.026;2022-12-18T09:11:25;106.47;;;39.73;;
18387;SDS011;9320;50.256;19.026;2022-12-18T09:13:55;100.03;;;40.23;;
18387;SDS011;9320;50.256;19.026;2022-12-18T09:16:24;97.53;;;39.17;;
18387;SDS011;9320;50.256;19.026;2022-12-18T09:18:58;89.47;;;38.27;;
18387;SDS011;9320;50.256;19.026;2022-12-18T09:21:28;98.20;;;37.60;;
18387;SDS011;9320;50.256;19.026;2022-12-18T09:24:02;98.97;;;37.37;;
18387;SDS011;9320;50.256;19.026;2022-12-18T09:26:34;95.17;;;38.87;;
18387;SDS011;9320;50.256;19.026;2022-12-18T09:29:02;97.03;;;37.90;;
18387;SDS011;9320;50.256;19.026;2022-12-18T09:31:30;103.20;;;40.23;;
18387;SDS011;9320;50.256;19.026;2022-12-18T09:33:58;103.87;;;40.07;;
18387;SDS011;9320;50.256;19.026;2022-12-18T09:36:28;96.33;;;40.13;;
18387;SDS011;9320;50.256;19.026;2022-12-18T09:38:56;105.27;;;41.33;;
18387;SDS011;9320;50.256;19.026;2022-12-18T09:41:37;95.57;;;38.83;;
18387;SDS011;9320;50.256;19.026;2022-12-18T09:44:11;100.17;;;41.13;;
18387;SDS011;9320;50.256;19.026;2022-12-18T09:46:47;98.70;;;40.97;;
18387;SDS011;9320;50.256;19.026;2022-12-18T09:49:21;89.23;;;37.83;;
18387;SDS011;9320;50.256;19.026;2022-12-18T09:51:54;91.10;;;38.57;;
18387;SDS011;9320;50.256;19.026;2022-12-18T09:54:25;94.63;;;36.90;;
18387;SDS011;9320;50.256;19.026;2022-12-18T09:56:58;83.93;;;34.40;;
18387;SDS011;9320;50.256;19.026;2022-12-18T09:59:29;73.33;;;31.90;;
18387;SDS011;9320;50.256;19.026;2022-12-18T10:02:10;78.13;;;32.47;;
18387;SDS011;9320;50.256;19.026;2022-12-18T10:04:44;72.83;;;30.10;;
18387;SDS011;9320;50.256;19.026;2022-12-18T10:07:20;69.87;;;29.63;;
18387;SDS011;9320;50.256;19.026;2022-12-18T10:09:56;75.37;;;31.40;;
18387;SDS011;9320;50.256;19.026;2022-12-18T10:12:29;78.83;;;33.53;;
18387;SDS011;9320;50.256;19.026;2022-12-18T10:15:06;74.73;;;33.23;;
18387;SDS011;9320;50.256;19.026;2022-12-18T10:17:41;72.27;;;31.57;;
18387;SDS011;9320;50.256;19.026;2022-12-18T10:20:15;80.37;;;33.37;;
18387;SDS011;9320;50.256;19.026;2022-12-18T10:22:53;80.53;;;33.50;;
18387;SDS011;9320;50.256;19.026;2022-12-18T10:25:30;84.97;;;34.93;;
18387;SDS011;9320;50.256;19.026;2022-12-18T10:28:07;82.97;;;34.47;;
18387;SDS011;9320;50.256;19.026;2022-12-18T10:30:39;83.43;;;34.40;;
18387;SDS011;9320;50.256;19.026;2022-12-18T10:33:09;75.93;;;33.87;;
18387;SDS011;9320;50.256;19.026;2022-12-18T10:35:41;73.77;;;32.03;;
18387;SDS011;9320;50.256;19.026;2022-12-18T10:38:22;70.17;;;29.97;;
18387;SDS011;9320;50.256;19.026;2022-12-18T10:40:52;69.80;;;29.20;;
18387;SDS011;9320;50.256;19.026;2022-12-18T10:43:23;65.57;;;28.40;;
18387;SDS011;9320;50.256;19.026;2022-12-18T10:46:00;71.27;;;30.50;;
18387;SDS011;9320;50.256;19.026;2022-12-18T10:48:40;68.67;;;30.57;;
18387;SDS011;9320;50.256;19.026;2022-12-18T10:51:19;71.07;;;29.43;;
18387;SDS011;9320;50.256;19.026;2022-12-18T10:53:53;72.93;;;29.23;;
18387;SDS011;9320;50.256;19.026;2022-12-18T10:56:24;66.67;;;29.97;;
18387;SDS011;9320;50.256;19.026;2022-12-18T10:58:58;71.73;;;30.03;;
18387;SDS011;9320;50.256;19.026;2022-12-18T11:01:31;67.40;;;31.57;;
18387;SDS011;9320;50.256;19.026;2022-12-18T11:04:16;74.10;;;30.43;;
18387;SDS011;9320;50.256;19.026;2022-12-18T11:06:53;76.20;;;30.97;;
18387;SDS011;9320;50.256;19.026;2022-12-18T11:09:24;76.63;;;31.67;;
18387;SDS011;9320;50.256;19.026;2022-12-18T11:11:54;69.50;;;30.40;;
18387;SDS011;9320;50.256;19.026;2022-12-18T11:14:25;75.43;;;32.40;;
18387;SDS011;9320;50.256;19.026;2022-12-18T11:16:55;91.43;;;35.50;;
18387;SDS011;9320;50.256;19.026;2022-12-18T11:19:45;87.70;;;36.70;;
18387;SDS011;9320;50.256;19.026;2022-12-18T11:22:20;80.47;;;35.07;;
18387;SDS011;9320;50.256;19.026;2022-12-18T11:24:54;82.50;;;35.97;;
18387;SDS011;9320;50.256;19.026;2022-12-18T11:27:47;90.53;;;38.60;;
18387;SDS011;9320;50.256;19.026;2022-12-18T11:30:20;83.50;;;33.60;;
18387;SDS011;9320;50.256;19.026;2022-12-18T11:32:50;79.17;;;31.77;;
18387;SDS011;9320;50.256;19.026;2022-12-18T11:35:32;77.30;;;32.83;;
18387;SDS011;9320;50.256;19.026;2022-12-18T11:38:06;77.40;;;34.13;;
18387;SDS011;9320;50.256;19.026;2022-12-18T11:40:47;76.23;;;33.03;;
18387;SDS011;9320;50.256;19.026;2022-12-18T11:43:20;80.03;;;35.40;;
18387;SDS011;9320;50.256;19.026;2022-12-18T11:45:53;79.20;;;32.87;;
18387;SDS011;9320;50.256;19.026;2022-12-18T11:48:27;82.77;;;33.63;;
18387;SDS011;9320;50.256;19.026;2022-12-18T11:50:58;79.10;;;32.70;;
18387;SDS011;9320;50.256;19.026;2022-12-18T11:53:28;79.50;;;33.70;;
18387;SDS011;9320;50.256;19.026;2022-12-18T11:56:04;77.10;;;34.53;;
18387;SDS011;9320;50.256;19.026;2022-12-18T11:58:50;82.63;;;34.37;;
18387;SDS011;9320;50.256;19.026;2022-12-18T12:01:28;80.47;;;33.80;;
18387;SDS011;9320;50.256;19.026;2022-12-18T12:04:27;73.07;;;32.40;;
18387;SDS011;9320;50.256;19.026;2022-12-18T12:07:12;72.07;;;29.93;;
18387;SDS011;9320;50.256;19.026;2022-12-18T12:09:50;57.53;;;26.93;;
18387;SDS011;9320;50.256;19.026;2022-12-18T12:12:30;55.70;;;24.90;;
18387;SDS011;9320;50.256;19.026;2022-12-18T12:15:17;52.47;;;24.23;;
18387;SDS011;9320;50.256;19.026;2022-12-18T12:17:53;53.37;;;23.73;;
18387;SDS011;9320;50.256;19.026;2022-12-18T12:20:26;55.67;;;24.13;;
18387;SDS011;9320;50.256;19.026;2022-12-18T12:23:09;56.33;;;24.37;;
18387;SDS011;9320;50.256;19.026;2022-12-18T12:25:54;50.93;;;23.30;;
18387;SDS011;9320;50.256;19.026;2022-12-18T12:28:31;48.80;;;23.50;;
18387;SDS011;9320;50.256;19.026;2022-12-18T12:31:13;51.17;;;23.40;;
18387;SDS011;9320;50.256;19.026;2022-12-18T12:33:49;52.67;;;22.80;;
18387;SDS011;9320;50.256;19.026;2022-12-18T12:36:25;50.07;;;23.13;;
18387;SDS011;9320;50.256;19.026;2022-12-18T12:39:06;52.30;;;23.63;;
18387;SDS011;9320;50.256;19.026;2022-12-18T12:41:40;57.13;;;23.93;;
18387;SDS011;9320;50.256;19.026;2022-12-18T12:44:29;57.33;;;24.23;;
18387;SDS011;9320;50.256;19.026;2022-12-18T12:47:04;57.37;;;24.80;;
18387;SDS011;9320;50.256;19.026;2022-12-18T12:49:36;61.50;;;25.30;;
18387;SDS011;9320;50.256;19.026;2022-12-18T12:52:07;58.80;;;25.40;;
18387;SDS011;9320;50.256;19.026;2022-12-18T12:54:41;59.53;;;26.13;;
18387;SDS011;9320;50.256;19.026;2022-12-18T12:57:11;55.50;;;25.03;;
18387;SDS011;9320;50.256;19.026;2022-12-18T12:59:47;58.17;;;25.40;;
18387;SDS011;9320;50.256;19.026;2022-12-18T13:02:24;64.23;;;26.23;;
18387;SDS011;9320;50.256;19.026;2022-12-18T13:05:00;62.60;;;25.67;;
18387;SDS011;9320;50.256;19.026;2022-12-18T13:07:34;56.73;;;25.77;;
18387;SDS011;9320;50.256;19.026;2022-12-18T13:10:13;57.73;;;27.50;;
18387;SDS011;9320;50.256;19.026;2022-12-18T13:12:53;57.97;;;24.73;;
18387;SDS011;9320;50.256;19.026;2022-12-18T13:15:25;53.87;;;24.17;;
18387;SDS011;9320;50.256;19.026;2022-12-18T13:18:05;60.40;;;24.87;;
18387;SDS011;9320;50.256;19.026;2022-12-18T13:20:47;59.80;;;25.37;;
18387;SDS011;9320;50.256;19.026;2022-12-18T13:23:32;63.40;;;26.47;;
18387;SDS011;9320;50.256;19.026;2022-12-18T13:29:01;61.03;;;27.50;;
18387;SDS011;9320;50.256;19.026;2022-12-18T13:34:29;62.80;;;26.93;;
18387;SDS011;9320;50.256;19.026;2022-12-18T13:40:00;63.00;;;27.30;;
18387;SDS011;9320;50.256;19.026;2022-12-18T13:42:39;63.10;;;26.30;;
18387;SDS011;9320;50.256;19.026;2022-12-18T13:45:41;54.13;;;25.90;;
18387;SDS011;9320;50.256;19.026;2022-12-18T13:48:17;61.67;;;26.47;;
18387;SDS011;9320;50.256;19.026;2022-12-18T13:50:55;60.23;;;26.37;;
18387;SDS011;9320;50.256;19.026;2022-12-18T13:53:27;63.30;;;27.53;;
18387;SDS011;9320;50.256;19.026;2022-12-18T13:55:58;67.30;;;27.70;;
18387;SDS011;9320;50.256;19.026;2022-12-18T13:58:26;70.67;;;28.53;;
18387;SDS011;9320;50.256;19.026;2022-12-18T14:00:54;68.13;;;28.67;;
18387;SDS011;9320;50.256;19.026;2022-12-18T14:03:23;68.20;;;29.37;;
18387;SDS011;9320;50.256;19.026;2022-12-18T14:05:55;78.27;;;32.87;;
18387;SDS011;9320;50.256;19.026;2022-12-18T14:08:31;79.57;;;32.10;;
18387;SDS011;9320;50.256;19.026;2022-12-18T14:11:03;72.00;;;29.57;;
18387;SDS011;9320;50.256;19.026;2022-12-18T14:13:35;78.27;;;31.50;;
18387;SDS011;9320;50.256;19.026;2022-12-18T14:16:05;74.73;;;32.60;;
18387;SDS011;9320;50.256;19.026;2022-12-18T14:18:38;77.67;;;32.37;;
18387;SDS011;9320;50.256;19.026;2022-12-18T14:21:18;81.80;;;31.60;;
18387;SDS011;9320;50.256;19.026;2022-12-18T14:23:49;85.50;;;34.37;;
18387;SDS011;9320;50.256;19.026;2022-12-18T14:26:30;84.40;;;33.57;;
18387;SDS011;9320;50.256;19.026;2022-12-18T14:28:59;80.80;;;32.23;;
18387;SDS011;9320;50.256;19.026;2022-12-18T14:31:29;87.97;;;32.23;;
18387;SDS011;9320;50.256;19.026;2022-12-18T14:33:58;83.67;;;32.70;;
18387;SDS011;9320;50.256;19.026;2022-12-18T14:36:27;87.83;;;33.50;;
18387;SDS011;9320;50.256;19.026;2022-12-18T14:38:56;91.00;;;33.47;;
18387;SDS011;9320;50.256;19.026;2022-12-18T14:41:25;93.27;;;34.30;;
18387;SDS011;9320;50.256;19.026;2022-12-18T14:43:54;74.10;;;31.10;;
18387;SDS011;9320;50.256;19.026;2022-12-18T14:46:33;82.20;;;33.50;;
18387;SDS011;9320;50.256;19.026;2022-12-18T14:49:03;81.13;;;33.77;;
18387;SDS011;9320;50.256;19.026;2022-12-18T14:51:47;76.33;;;32.87;;
18387;SDS011;9320;50.256;19.026;2022-12-18T14:54:17;80.20;;;32.57;;
18387;SDS011;9320;50.256;19.026;2022-12-18T14:56:47;82.77;;;33.97;;
18387;SDS011;9320;50.256;19.026;2022-12-18T14:59:17;98.20;;;34.97;;